Time;durP1;ratioP1;P1;durP2;ratioP2;P2;SDS_P1;SDS_P2;PMS_P1;PMS_P2;Temp;Humidity;BMP_temperature;BMP_pressure;BME280_temperature;BME280_humidity;BME280_pressure;Samples;Min_cycle;Max_cycle;Signal;HPM_P1;HPM_P2
2022/05/19 00:07:42;;;;;;;;;9.50;9.50;;;;;;;;2;261076402;261076402;-89
2022/05/19 00:10:08;;;;;;;;;13.50;11.00;;;;;;;;4336600;27;12109823;-89
2022/05/19 00:12:58;;;;;;;;;5.50;5.50;;;;;;;;3340789;28;32917767;-91
2022/05/19 00:15:23;;;;;;;;;11.50;10.75;;;;;;;;5098270;27;29416;-91
2022/05/19 00:17:48;;;;;;;;;13.50;12.50;;;;;;;;4870822;27;6499485;-91
2022/05/19 00:20:13;;;;;;;;;11.00;10.25;;;;;;;;5116908;27;29331;-91
2022/05/19 00:22:39;;;;;;;;;11.50;9.75;;;;;;;;5116802;27;29539;-91
2022/05/19 00:25:04;;;;;;;;;11.00;9.00;;;;;;;;4910350;27;5861134;-92
2022/05/19 00:28:03;;;;;;;;;5.00;5.00;;;;;;;;2570387;27;35151165;-91
2022/05/19 00:30:28;;;;;;;;;12.00;10.33;;;;;;;;3938228;27;9139409;-91
2022/05/19 00:32:54;;;;;;;;;11.50;11.50;;;;;;;;5117068;27;29343;-91
2022/05/19 00:35:19;;;;;;;;;10.50;10.00;;;;;;;;4999963;27;2495564;-91
2022/05/19 00:37:44;;;;;;;;;11.75;9.25;;;;;;;;5116503;27;29339;-91
2022/05/19 00:40:10;;;;;;;;;12.75;11.75;;;;;;;;5098369;27;29227;-91
2022/05/19 00:42:45;;;;;;;;;10.25;9.00;;;;;;;;5115960;27;29620;-91
2022/05/19 00:45:15;;;;;;;;;11.00;10.50;;;;;;;;5116011;27;30161;-91
2022/05/19 00:47:50;;;;;;;;;8.00;6.50;;;;;;;;5097822;27;29964;-91
2022/05/19 00:50:24;;;;;;;;;16.75;12.25;;;;;;;;4440428;27;11444389;-91
2022/05/19 00:54:27;;;;;;;;;;;;;;;;;;2273138;28;58160450;-91
2022/05/19 00:57:01;;;;;;;;;11.67;11.67;;;;;;;;4201932;27;8525488;-90
2022/05/19 00:59:33;;;;;;;;;14.00;12.00;;;;;;;;3307192;27;30912501;-91
2022/05/19 01:01:59;;;;;;;;;11.75;10.00;;;;;;;;5115845;27;30074;-91
2022/05/19 01:04:25;;;;;;;;;13.00;13.00;;;;;;;;5116439;27;29489;-91
2022/05/19 01:13:00;;;;;;;;;;;;;;;;;;2452849;28;126172951;-91
2022/05/19 01:18:36;;;;;;;;;12.00;9.00;;;;;;;;2;279078711;279078711;-90
2022/05/19 01:21:02;;;;;;;;;13.00;12.25;;;;;;;;5092283;27;389239;-90
2022/05/19 01:25:36;;;;;;;;;;;;;;;;;;2460398;28;159427812;-90
2022/05/19 01:32:26;;;;;;;;;10.00;10.00;;;;;;;;3;134830164;154489660;-90
2022/05/19 01:41:08;;;;;;;;;;;;;;;;;;2;233970307;233970307;-91
2022/05/19 01:50:11;;;;;;;;;11.00;5.50;;;;;;;;2;279079169;279079169;-90
2022/05/19 01:59:05;;;;;;;;;13.50;9.00;;;;;;;;2;234069001;234069001;-90
2022/05/19 02:08:11;;;;;;;;;11.00;11.00;;;;;;;;2;279080688;279080688;-91
2022/05/19 02:20:15;;;;;;;;;18.00;18.00;;;;;;;;2;234070504;234070504;-89
2022/05/19 02:29:22;;;;;;;;;13.50;13.50;;;;;;;;2;279080816;279080816;-90
2022/05/19 02:38:04;;;;;;;;;19.50;16.50;;;;;;;;2;234067862;234067862;-90
2022/05/19 02:47:05;;;;;;;;;9.50;9.50;;;;;;;;2;279075071;279075071;-89
2022/05/19 02:55:47;;;;;;;;;9.00;9.00;;;;;;;;2;234065602;234065602;-90
2022/05/19 03:03:55;;;;;;;;;13.00;10.00;;;;;;;;2;279080290;279080290;-88
2022/05/19 03:11:48;;;;;;;;;6.00;6.00;;;;;;;;529041;27;238549230;-89
2022/05/19 03:22:46;;;;;;;;;10.50;10.50;;;;;;;;371427;27;273009183;-89
2022/05/19 03:31:02;;;;;;;;;12.00;12.00;;;;;;;;2;261073475;261073475;-88
2022/05/19 03:40:29;;;;;;;;;19.00;11.00;;;;;;;;2;288084173;288084173;-89
2022/05/19 03:48:45;;;;;;;;;21.50;10.50;;;;;;;;2;261075537;261075537;-89
2022/05/19 03:58:12;;;;;;;;;12.50;12.50;;;;;;;;2;288084179;288084179;-89
2022/05/19 04:06:26;;;;;;;;;8.50;8.50;;;;;;;;2;261077050;261077050;-89
2022/05/19 04:08:51;;;;;;;;;11.00;11.00;;;;;;;;2543766;27;72182683;-89
2022/05/19 04:11:17;;;;;;;;;14.75;12.50;;;;;;;;5123483;27;140586;-89
2022/05/19 04:21:00;;;;;;;;;;;;;;;;;;571558;27;288072201;-89
2022/05/19 04:29:16;;;;;;;;;6.00;6.00;;;;;;;;2;261077070;261077070;-88
2022/05/19 04:38:43;;;;;;;;;9.50;9.50;;;;;;;;2;288085829;288085829;-89
2022/05/19 04:41:13;;;;;;;;;10.50;10.50;;;;;;;;2;149338203;149338203;-88
2022/05/19 04:51:06;;;;;;;;;14.00;12.50;;;;;;;;866536;27;288084620;-89
2022/05/19 04:59:21;;;;;;;;;16.50;14.50;;;;;;;;2;261071073;261071073;-89
2022/05/19 05:08:48;;;;;;;;;8.50;8.50;;;;;;;;2;288084926;288084926;-85
2022/05/19 05:17:04;;;;;;;;;19.50;15.00;;;;;;;;2;261081499;261081499;-84
2022/05/19 05:26:31;;;;;;;;;14.00;8.50;;;;;;;;2;288084486;288084486;-74
2022/05/19 05:34:47;;;;;;;;;10.00;10.00;;;;;;;;2;261076578;261076578;-75
2022/05/19 05:44:14;;;;;;;;;8.50;6.50;;;;;;;;2;288083536;288083536;-90
2022/05/19 05:52:30;;;;;;;;;8.50;8.50;;;;;;;;2;261078419;261078419;-80
2022/05/19 06:01:57;;;;;;;;;10.00;10.00;;;;;;;;2;288082505;288082505;-86
2022/05/19 06:10:13;;;;;;;;;21.50;12.50;;;;;;;;2;261075010;261075010;-86
2022/05/19 06:19:41;;;;;;;;;14.00;14.00;;;;;;;;2;288082084;288082084;-86
2022/05/19 06:27:58;;;;;;;;;17.50;9.00;;;;;;;;2;261079415;261079415;-86
2022/05/19 06:37:25;;;;;;;;;11.50;9.50;;;;;;;;2;288082970;288082970;-85
2022/05/19 06:45:43;;;;;;;;;11.50;11.50;;;;;;;;2;261079339;261079339;-86
2022/05/19 06:55:12;;;;;;;;;10.00;10.00;;;;;;;;2;288084516;288084516;-85
2022/05/19 07:03:28;;;;;;;;;15.50;15.50;;;;;;;;2;261073736;261073736;-86
2022/05/19 07:12:56;;;;;;;;;9.00;9.00;;;;;;;;2;288089025;288089025;-86
2022/05/19 07:21:12;;;;;;;;;12.50;12.50;;;;;;;;2;261071454;261071454;-84
2022/05/19 07:30:41;;;;;;;;;11.00;11.00;;;;;;;;2;288082125;288082125;-86
2022/05/19 07:38:59;;;;;;;;;12.00;12.00;;;;;;;;2;261076582;261076582;-85
2022/05/19 07:48:27;;;;;;;;;21.00;9.00;;;;;;;;2;288082128;288082128;-85
2022/05/19 07:56:43;;;;;;;;;14.50;10.00;;;;;;;;2;261075437;261075437;-86
2022/05/19 08:06:10;;;;;;;;;11.00;11.00;;;;;;;;2;288083561;288083561;-85
2022/05/19 08:23:55;;;;;;;;;15.50;13.50;;;;;;;;2;278517496;278517496;-83
2022/05/19 08:32:09;;;;;;;;;12.00;12.00;;;;;;;;2;259873682;259873682;-84
2022/05/19 08:41:40;;;;;;;;;14.50;11.50;;;;;;;;2;288084139;288084139;-83
2022/05/19 08:50:01;;;;;;;;;19.00;17.00;;;;;;;;2;258622686;258622686;-87
2022/05/19 08:52:33;;;;;;;;;12.67;12.67;;;;;;;;162722;27;140365200;-83
2022/05/19 08:56:37;;;;;;;;;;;;;;;;;;879561;27;217982990;-81
2022/05/19 08:59:17;;;;;;;;;19.25;16.00;;;;;;;;3314840;27;40347062;-82
2022/05/19 09:02:19;;;;;;;;;;;;;;;;;;633549;27;74370685;-83
2022/05/19 09:04:55;;;;;;;;;15.75;13.00;;;;;;;;3132121;27;20897032;-83
2022/05/19 09:13:17;;;;;;;;;;;;;;;;;;3691882;28;261076674;-91
2022/05/19 09:22:25;;;;;;;;;12.00;12.00;;;;;;;;2;278023249;278023249;-82
2022/05/19 09:30:47;;;;;;;;;9.50;9.50;;;;;;;;2;248855243;248855243;-81
2022/05/19 09:40:21;;;;;;;;;13.00;13.00;;;;;;;;2;288083279;288083279;-84
2022/05/19 09:48:41;;;;;;;;;8.00;8.00;;;;;;;;2;261078370;261078370;-83
2022/05/19 09:58:10;;;;;;;;;11.00;11.00;;;;;;;;2;288083759;288083759;-86
2022/05/19 10:06:37;;;;;;;;;11.50;11.50;;;;;;;;2;261062918;261062918;-84
2022/05/19 10:16:04;;;;;;;;;16.00;16.00;;;;;;;;2;286101163;286101163;-83
2022/05/19 10:24:28;;;;;;;;;18.00;13.00;;;;;;;;2;259967259;259967259;-81
2022/05/19 10:34:15;;;;;;;;;13.00;10.00;;;;;;;;2;288083225;288083225;-82
2022/05/19 10:42:43;;;;;;;;;8.50;8.50;;;;;;;;2;261076148;261076148;-82
2022/05/19 10:52:17;;;;;;;;;6.50;6.50;;;;;;;;2;288082951;288082951;-84
2022/05/19 11:00:46;;;;;;;;;5.50;5.50;;;;;;;;2;261077706;261077706;-82
2022/05/19 11:10:33;;;;;;;;;5.50;5.50;;;;;;;;2;288084655;288084655;-82
2022/05/19 11:19:03;;;;;;;;;2.50;2.50;;;;;;;;2;261076747;261076747;-82
2022/05/19 11:28:36;;;;;;;;;3.00;3.00;;;;;;;;2;287370806;287370806;-83
2022/05/19 11:36:55;;;;;;;;;0.00;0.00;;;;;;;;2;261075958;261075958;-82
2022/05/19 11:46:33;;;;;;;;;0.00;0.00;;;;;;;;2;288083256;288083256;-82
2022/05/19 11:55:13;;;;;;;;;1.50;1.50;;;;;;;;2;261075960;261075960;-82
2022/05/19 12:04:41;;;;;;;;;0.50;0.50;;;;;;;;2;288083003;288083003;-82
2022/05/19 12:13:00;;;;;;;;;1.00;1.00;;;;;;;;2;261077657;261077657;-82
2022/05/19 12:22:40;;;;;;;;;1.50;1.50;;;;;;;;2;288082864;288082864;-82
2022/05/19 12:40:53;;;;;;;;;0.50;0.50;;;;;;;;2;288085787;288085787;-81
2022/05/19 12:49:15;;;;;;;;;2.00;2.00;;;;;;;;2;261075419;261075419;-82
2022/05/19 12:58:48;;;;;;;;;1.50;1.50;;;;;;;;2;288083119;288083119;-81
2022/05/19 13:07:03;;;;;;;;;4.00;4.00;;;;;;;;2;261076984;261076984;-82
2022/05/19 13:16:32;;;;;;;;;11.00;9.00;;;;;;;;2;288082979;288082979;-81
2022/05/19 13:24:47;;;;;;;;;2.50;1.00;;;;;;;;2;261073665;261073665;-83
2022/05/19 13:34:17;;;;;;;;;2.00;2.00;;;;;;;;2;288084302;288084302;-82
2022/05/19 13:42:35;;;;;;;;;4.50;2.50;;;;;;;;2;261074767;261074767;-82
2022/05/19 13:52:06;;;;;;;;;5.00;2.00;;;;;;;;2;288084467;288084467;-82
2022/05/19 14:00:23;;;;;;;;;5.00;3.00;;;;;;;;2;261077815;261077815;-83
2022/05/19 14:09:53;;;;;;;;;5.00;3.50;;;;;;;;2;288084125;288084125;-82
2022/05/19 14:18:11;;;;;;;;;8.00;6.50;;;;;;;;2;261074059;261074059;-82
2022/05/19 14:27:40;;;;;;;;;5.50;4.00;;;;;;;;2;288081587;288081587;-81
2022/05/19 14:35:56;;;;;;;;;5.50;4.00;;;;;;;;2;261076380;261076380;-82
2022/05/19 14:45:24;;;;;;;;;3.00;1.50;;;;;;;;2;288084353;288084353;-82
2022/05/19 14:53:43;;;;;;;;;5.50;3.50;;;;;;;;2;261075058;261075058;-82
2022/05/19 15:03:10;;;;;;;;;2.50;0.50;;;;;;;;2;288083856;288083856;-83
2022/05/19 15:11:27;;;;;;;;;3.50;2.00;;;;;;;;2;261074934;261074934;-82
2022/05/19 15:20:54;;;;;;;;;4.50;2.50;;;;;;;;2;288084188;288084188;-82
2022/05/19 15:29:10;;;;;;;;;2.00;2.00;;;;;;;;2;261076605;261076605;-82
2022/05/19 15:38:37;;;;;;;;;1.50;1.50;;;;;;;;2;288082128;288082128;-81
2022/05/19 15:46:53;;;;;;;;;6.00;4.50;;;;;;;;2;261074453;261074453;-83
2022/05/19 15:56:20;;;;;;;;;4.50;4.50;;;;;;;;2;288081740;288081740;-82
2022/05/19 16:04:36;;;;;;;;;6.00;4.00;;;;;;;;2;261076726;261076726;-81
2022/05/19 16:14:04;;;;;;;;;4.00;2.00;;;;;;;;2;288081780;288081780;-83
2022/05/19 16:22:21;;;;;;;;;3.50;2.00;;;;;;;;2;261076730;261076730;-82
2022/05/19 16:31:49;;;;;;;;;3.00;3.00;;;;;;;;2;288084063;288084063;-82
2022/05/19 16:40:05;;;;;;;;;4.00;4.00;;;;;;;;2;261074446;261074446;-82
2022/05/19 16:49:33;;;;;;;;;3.50;1.50;;;;;;;;2;288080916;288080916;-82
2022/05/19 16:57:55;;;;;;;;;2.00;2.00;;;;;;;;2;261078084;261078084;-82
2022/05/19 17:07:23;;;;;;;;;2.00;2.00;;;;;;;;2;288084812;288084812;-73
2022/05/19 17:15:39;;;;;;;;;2.00;2.00;;;;;;;;2;261077896;261077896;-72
2022/05/19 17:25:08;;;;;;;;;2.50;2.50;;;;;;;;2;288084468;288084468;-72
2022/05/19 17:33:24;;;;;;;;;4.50;4.50;;;;;;;;2;261077200;261077200;-82
2022/05/19 17:42:52;;;;;;;;;4.00;4.00;;;;;;;;2;288083177;288083177;-79
2022/05/19 17:51:08;;;;;;;;;4.50;4.50;;;;;;;;2;261074348;261074348;-81
2022/05/19 18:00:35;;;;;;;;;1.50;1.50;;;;;;;;2;288084923;288084923;-81
2022/05/19 18:08:51;;;;;;;;;5.50;5.50;;;;;;;;2;261076713;261076713;-83
2022/05/19 18:18:21;;;;;;;;;14.50;3.00;;;;;;;;2;288088047;288088047;-81
2022/05/19 18:26:38;;;;;;;;;4.00;4.00;;;;;;;;2;261077982;261077982;-83
2022/05/19 18:36:07;;;;;;;;;5.50;5.50;;;;;;;;2;288083393;288083393;-82
2022/05/19 18:54:09;;;;;;;;;3.00;3.00;;;;;;;;2;288082849;288082849;-83
2022/05/19 19:02:24;;;;;;;;;3.50;3.50;;;;;;;;2;261076287;261076287;-85
2022/05/19 19:11:52;;;;;;;;;4.00;4.00;;;;;;;;2;288081520;288081520;-85
2022/05/19 19:20:08;;;;;;;;;4.50;4.50;;;;;;;;2;261073926;261073926;-83
2022/05/19 19:29:41;;;;;;;;;7.00;7.00;;;;;;;;2;288086665;288086665;-84
2022/05/19 19:37:56;;;;;;;;;2.00;2.00;;;;;;;;2;261075443;261075443;-81
2022/05/19 19:47:24;;;;;;;;;3.50;3.50;;;;;;;;2;288085501;288085501;-85
2022/05/19 19:55:40;;;;;;;;;4.00;4.00;;;;;;;;2;261080138;261080138;-85
2022/05/19 20:05:08;;;;;;;;;2.00;2.00;;;;;;;;2;288080291;288080291;-85
2022/05/19 20:13:24;;;;;;;;;2.50;2.50;;;;;;;;2;261076791;261076791;-85
2022/05/19 20:22:52;;;;;;;;;3.50;3.50;;;;;;;;2;288083661;288083661;-85
2022/05/19 20:31:08;;;;;;;;;2.00;2.00;;;;;;;;2;261076299;261076299;-85
2022/05/19 20:40:36;;;;;;;;;4.00;4.00;;;;;;;;2;288082320;288082320;-85
2022/05/19 20:48:56;;;;;;;;;3.50;3.50;;;;;;;;2;261083564;261083564;-84
2022/05/19 20:58:24;;;;;;;;;1.00;1.00;;;;;;;;2;288082908;288082908;-84
2022/05/19 21:06:40;;;;;;;;;1.00;1.00;;;;;;;;2;261075420;261075420;-85
2022/05/19 21:16:08;;;;;;;;;1.00;1.00;;;;;;;;2;288082172;288082172;-83
2022/05/19 21:34:10;;;;;;;;;2.50;2.50;;;;;;;;2;288083329;288083329;-86
2022/05/19 21:42:26;;;;;;;;;1.50;1.50;;;;;;;;2;261075636;261075636;-87
2022/05/19 22:00:27;;;;;;;;;1.50;1.50;;;;;;;;2;261074353;261074353;-88
2022/05/19 22:09:55;;;;;;;;;10.50;0.50;;;;;;;;2;288084071;288084071;-87
2022/05/19 22:18:11;;;;;;;;;2.00;2.00;;;;;;;;2;261076841;261076841;-91
2022/05/19 22:27:39;;;;;;;;;2.50;2.50;;;;;;;;2;288083070;288083070;-87
2022/05/19 22:35:54;;;;;;;;;9.00;0.50;;;;;;;;2;261076101;261076101;-86
2022/05/19 22:45:23;;;;;;;;;2.50;2.50;;;;;;;;2;288082513;288082513;-87
2022/05/19 22:53:38;;;;;;;;;2.50;2.50;;;;;;;;2;261078677;261078677;-86
2022/05/19 23:03:07;;;;;;;;;5.00;5.00;;;;;;;;2;288082862;288082862;-87
2022/05/19 23:11:22;;;;;;;;;8.50;4.00;;;;;;;;2;261075061;261075061;-86
2022/05/19 23:20:50;;;;;;;;;1.00;1.00;;;;;;;;2;288084029;288084029;-89
2022/05/19 23:29:05;;;;;;;;;0.00;0.00;;;;;;;;2;261078977;261078977;-87
2022/05/19 23:38:34;;;;;;;;;2.00;2.00;;;;;;;;2;288083392;288083392;-86
2022/05/19 23:46:50;;;;;;;;;1.50;1.50;;;;;;;;2;261075263;261075263;-86
2022/05/19 23:56:17;;;;;;;;;1.00;1.00;;;;;;;;2;288083386;288083386;-86
